createdAt,value
2023-05-05T00:01:04.289Z,12.50
2023-05-05T00:03:32.615Z,12.40
2023-05-05T00:06:00.424Z,12.30
2023-05-05T00:08:28.743Z,12.30
2023-05-05T00:10:57.486Z,12.30
2023-05-05T00:13:26.792Z,12.30
2023-05-05T00:15:55.104Z,12.30
2023-05-05T00:18:22.953Z,12.30
2023-05-05T00:20:50.903Z,12.20
2023-05-05T00:23:19.960Z,12.20
2023-05-05T00:25:47.989Z,12.10
2023-05-05T00:28:15.725Z,12.10
2023-05-05T00:30:44.964Z,12.10
2023-05-05T00:33:13.155Z,12.10
2023-05-05T00:35:41.013Z,12.10
2023-05-05T00:38:09.343Z,12.00
2023-05-05T00:40:38.039Z,12.00
2023-05-05T00:43:06.115Z,11.90
2023-05-05T00:45:33.954Z,11.90
2023-05-05T00:48:03.194Z,11.90
2023-05-05T00:50:32.226Z,11.90
2023-05-05T00:53:02.494Z,11.80
2023-05-05T00:55:31.160Z,11.80
2023-05-05T00:57:59.369Z,11.80
2023-05-05T01:00:27.687Z,11.80
2023-05-05T01:02:55.959Z,11.80
2023-05-05T01:05:27.082Z,11.80
2023-05-05T01:08:05.382Z,11.70
2023-05-05T01:10:42.015Z,11.70
2023-05-05T01:13:26.541Z,11.60
2023-05-05T01:16:00.943Z,11.60
2023-05-05T01:18:34.571Z,11.60
2023-05-05T01:21:11.728Z,11.60
2023-05-05T01:23:57.971Z,11.60
2023-05-05T01:26:56.177Z,11.60
2023-05-05T01:29:38.224Z,11.50
2023-05-05T01:32:10.436Z,11.50
2023-05-05T01:34:42.945Z,11.40
2023-05-05T01:37:14.913Z,11.40
2023-05-05T01:39:45.495Z,11.40
2023-05-05T01:42:14.980Z,11.40
2023-05-05T01:44:44.574Z,11.40
2023-05-05T01:47:15.946Z,11.40
2023-05-05T01:49:46.662Z,11.40
2023-05-05T01:52:15.508Z,11.30
2023-05-05T01:54:45.013Z,11.30
2023-05-05T01:57:13.791Z,11.30
2023-05-05T01:59:41.608Z,11.20
2023-05-05T02:02:12.912Z,11.30
2023-05-05T02:04:44.353Z,11.20
2023-05-05T02:07:13.811Z,11.20
2023-05-05T02:09:43.536Z,11.20
2023-05-05T02:12:12.722Z,11.10
2023-05-05T02:14:42.956Z,11.10
2023-05-05T02:17:14.123Z,11.10
2023-05-05T02:19:46.094Z,11.10
2023-05-05T02:22:16.369Z,11.10
2023-05-05T02:24:44.509Z,11.00
2023-05-05T02:27:13.225Z,11.00
2023-05-05T02:29:49.812Z,11.00
2023-05-05T02:32:21.709Z,11.00
2023-05-05T02:34:52.884Z,11.00
2023-05-05T02:37:24.798Z,11.00
2023-05-05T02:39:58.641Z,10.90
2023-05-05T02:42:30.497Z,10.90
2023-05-05T02:45:00.808Z,10.80
2023-05-05T02:47:34.940Z,10.80
2023-05-05T02:50:05.142Z,10.90
2023-05-05T02:52:33.113Z,10.80
2023-05-05T02:55:02.038Z,10.80
2023-05-05T02:57:37.082Z,10.80
2023-05-05T03:00:09.378Z,10.80
2023-05-05T03:02:44.905Z,10.80
2023-05-05T03:05:19.389Z,10.70
2023-05-05T03:07:54.709Z,10.70
2023-05-05T03:10:27.215Z,10.70
2023-05-05T03:12:56.574Z,10.70
2023-05-05T03:15:28.997Z,10.70
2023-05-05T03:17:59.244Z,10.60
2023-05-05T03:20:29.745Z,10.60
2023-05-05T03:22:57.570Z,10.60
2023-05-05T03:25:42.881Z,10.50
2023-05-05T03:28:10.614Z,10.50
2023-05-05T03:30:38.566Z,10.50
2023-05-05T03:33:06.527Z,10.50
2023-05-05T03:35:35.663Z,10.50
2023-05-05T03:38:03.464Z,10.50
2023-05-05T03:40:42.918Z,10.40
2023-05-05T03:43:11.787Z,10.40
2023-05-05T03:45:39.625Z,10.40
2023-05-05T03:48:09.569Z,10.50
2023-05-05T03:50:38.817Z,10.40
2023-05-05T03:53:06.582Z,10.40
2023-05-05T03:55:34.435Z,10.40
2023-05-05T03:58:02.167Z,10.30
2023-05-05T04:03:12.630Z,10.30
2023-05-05T04:05:40.466Z,10.30
2023-05-05T04:08:08.211Z,10.40
2023-05-05T04:10:36.006Z,10.40
2023-05-05T04:13:04.051Z,10.40
2023-05-05T04:15:32.097Z,10.40
2023-05-05T04:18:00.128Z,10.40
2023-05-05T04:20:29.322Z,10.30
2023-05-05T04:22:57.123Z,10.30
2023-05-05T04:25:24.873Z,10.30
2023-05-05T04:27:52.621Z,10.30
2023-05-05T04:30:20.443Z,10.30
2023-05-05T04:32:48.261Z,10.30
2023-05-05T04:35:16.193Z,10.30
2023-05-05T04:37:45.342Z,10.30
2023-05-05T04:40:13.546Z,10.30
2023-05-05T04:42:41.317Z,10.30
2023-05-05T04:45:10.446Z,10.40
2023-05-05T04:47:38.981Z,10.50
2023-05-05T04:50:07.865Z,11.30
2023-05-05T04:52:35.913Z,11.70
2023-05-05T04:55:05.584Z,12.30
2023-05-05T04:57:33.392Z,12.70
2023-05-05T05:00:01.705Z,13.00
2023-05-05T05:02:29.606Z,13.20
2023-05-05T05:04:57.426Z,12.40
2023-05-05T05:07:25.908Z,11.50
2023-05-05T05:09:53.743Z,11.10
2023-05-05T05:12:22.887Z,10.80
2023-05-05T05:14:50.644Z,10.70
2023-05-05T05:17:18.432Z,10.70
2023-05-05T05:19:46.188Z,10.80
2023-05-05T05:22:13.947Z,10.90
2023-05-05T05:24:41.729Z,11.00
2023-05-05T05:27:10.305Z,11.50
2023-05-05T05:29:39.627Z,11.20
2023-05-05T05:32:07.537Z,11.40
2023-05-05T05:34:35.436Z,13.20
2023-05-05T05:37:03.280Z,13.00
2023-05-05T05:39:31.045Z,12.10
2023-05-05T05:41:58.785Z,12.30
2023-05-05T05:44:26.559Z,14.20
2023-05-05T05:46:56.113Z,15.40
2023-05-05T05:49:23.907Z,15.70
2023-05-05T05:51:51.715Z,16.10
2023-05-05T05:54:19.503Z,16.00
2023-05-05T05:56:47.270Z,15.90
2023-05-05T05:59:15.061Z,14.10
2023-05-05T06:01:42.886Z,13.20
2023-05-05T06:04:13.082Z,12.80
2023-05-05T06:06:40.992Z,12.60
2023-05-05T06:09:08.794Z,13.30
2023-05-05T06:11:37.017Z,12.80
2023-05-05T06:14:04.800Z,12.60
2023-05-05T06:16:32.724Z,12.50
2023-05-05T06:19:00.528Z,12.40
2023-05-05T06:21:29.742Z,12.50
2023-05-05T06:23:57.533Z,13.40
2023-05-05T06:26:25.952Z,13.70
2023-05-05T06:28:53.755Z,13.90
2023-05-05T06:31:21.605Z,13.70
2023-05-05T06:33:49.430Z,13.30
2023-05-05T06:36:17.319Z,13.20
2023-05-05T06:38:46.421Z,13.10
2023-05-05T06:41:14.219Z,13.10
2023-05-05T06:43:44.168Z,13.20
2023-05-05T06:46:12.299Z,15.60
2023-05-05T06:48:40.104Z,17.40
2023-05-05T06:51:07.829Z,18.60
2023-05-05T06:53:35.644Z,19.70
2023-05-05T06:56:05.107Z,18.90
2023-05-05T06:58:32.848Z,20.00
2023-05-05T07:01:00.646Z,20.50
2023-05-05T07:03:29.139Z,21.10
2023-05-05T07:05:57.670Z,21.60
2023-05-05T07:08:26.469Z,21.70
2023-05-05T07:10:54.222Z,22.40
2023-05-05T07:13:23.422Z,21.80
2023-05-05T07:15:51.526Z,21.20
2023-05-05T07:18:20.364Z,20.30
2023-05-05T07:20:48.487Z,19.40
2023-05-05T07:23:16.240Z,19.70
2023-05-05T07:25:44.051Z,19.50
2023-05-05T07:28:12.152Z,19.60
2023-05-05T07:30:41.430Z,18.90
2023-05-05T07:33:09.292Z,19.10
2023-05-05T07:35:37.097Z,19.40
2023-05-05T07:38:08.731Z,20.40
2023-05-05T07:40:38.039Z,21.80
2023-05-05T07:43:05.863Z,20.50
2023-05-05T07:45:33.842Z,20.70
2023-05-05T07:48:05.523Z,20.50
2023-05-05T07:50:33.331Z,21.10
2023-05-05T07:53:10.743Z,21.20
2023-05-05T07:55:42.532Z,21.50
2023-05-05T07:58:11.039Z,21.30
2023-05-05T08:00:38.897Z,21.30
2023-05-05T08:03:11.368Z,21.40
2023-05-05T08:05:39.881Z,21.40
2023-05-05T08:08:07.748Z,19.90
2023-05-05T08:10:35.668Z,20.50
2023-05-05T08:13:03.420Z,21.20
2023-05-05T08:15:31.178Z,22.00
2023-05-05T08:17:58.964Z,21.50
2023-05-05T08:20:30.006Z,21.40
2023-05-05T08:22:57.825Z,22.00
2023-05-05T08:25:26.814Z,20.50
2023-05-05T08:27:54.814Z,20.80
2023-05-05T08:30:22.685Z,21.20
2023-05-05T08:32:50.419Z,21.70
2023-05-05T08:35:18.247Z,21.00
2023-05-05T08:37:47.427Z,21.00
2023-05-05T08:40:15.853Z,20.70
2023-05-05T08:42:45.427Z,21.30
2023-05-05T08:45:13.471Z,22.00
2023-05-05T08:47:43.040Z,22.10
2023-05-05T08:50:12.645Z,22.30
2023-05-05T08:52:43.811Z,21.70
2023-05-05T08:55:25.315Z,21.60
2023-05-05T08:57:55.922Z,21.30
2023-05-05T09:00:26.293Z,21.90
2023-05-05T09:02:56.932Z,22.60
2023-05-05T09:05:24.930Z,23.20
2023-05-05T09:07:53.254Z,23.10
2023-05-05T09:10:22.467Z,22.50
2023-05-05T09:12:51.381Z,22.20
2023-05-05T09:15:19.387Z,22.70
2023-05-05T09:17:47.687Z,22.80
2023-05-05T09:20:16.194Z,22.90
2023-05-05T09:22:45.573Z,23.20
2023-05-05T09:25:14.631Z,23.60
2023-05-05T09:27:46.242Z,23.10
2023-05-05T09:30:17.546Z,23.40
2023-05-05T09:32:49.595Z,22.60
2023-05-05T09:35:18.175Z,22.60
2023-05-05T09:37:46.553Z,22.90
2023-05-05T09:40:16.192Z,23.30
2023-05-05T09:42:45.672Z,23.50
2023-05-05T09:45:27.601Z,23.40
2023-05-05T09:48:00.381Z,23.60
2023-05-05T09:50:30.691Z,23.50
2023-05-05T09:53:00.051Z,23.20
2023-05-05T09:55:27.996Z,23.40
2023-05-05T09:57:57.346Z,23.70
2023-05-05T10:00:39.423Z,23.10
2023-05-05T10:03:07.542Z,23.20
2023-05-05T10:05:48.955Z,23.00
2023-05-05T10:08:17.442Z,22.80
2023-05-05T10:10:50.594Z,23.20
2023-05-05T10:13:21.473Z,23.20
2023-05-05T10:15:51.295Z,22.80
2023-05-05T10:18:22.848Z,23.00
2023-05-05T10:20:56.821Z,22.40
2023-05-05T10:23:28.803Z,22.60
2023-05-05T10:26:05.937Z,22.20
2023-05-05T10:28:38.131Z,22.40
2023-05-05T10:31:20.457Z,22.60
2023-05-05T10:33:55.856Z,22.60
2023-05-05T10:36:25.433Z,22.40
2023-05-05T10:38:56.934Z,22.10
2023-05-05T10:41:25.835Z,22.20
2023-05-05T10:43:57.456Z,22.80
2023-05-05T10:46:27.482Z,23.10
2023-05-05T10:49:02.595Z,23.20
2023-05-05T10:51:41.053Z,23.10
2023-05-05T10:54:20.148Z,22.90
2023-05-05T10:56:51.103Z,23.20
2023-05-05T10:59:44.834Z,23.50
2023-05-05T11:02:26.708Z,22.80
2023-05-05T11:05:18.253Z,22.90
2023-05-05T11:07:47.088Z,23.10
2023-05-05T11:10:16.694Z,23.40
2023-05-05T11:13:21.057Z,23.40
2023-05-05T11:15:52.025Z,23.20
2023-05-05T11:18:35.641Z,23.20
2023-05-05T11:21:17.434Z,23.00
2023-05-05T11:23:47.064Z,22.40
2023-05-05T11:26:15.865Z,22.30
2023-05-05T11:29:01.215Z,22.50
2023-05-05T11:31:31.636Z,22.80
2023-05-05T11:34:24.779Z,22.60
2023-05-05T11:36:53.670Z,22.20
2023-05-05T11:39:27.348Z,21.90
2023-05-05T11:42:23.059Z,22.00
2023-05-05T11:44:51.342Z,22.30
2023-05-05T11:47:31.900Z,22.80
2023-05-05T11:50:00.774Z,23.00
2023-05-05T11:52:28.644Z,22.70
2023-05-05T11:55:03.498Z,22.70
2023-05-05T11:57:31.777Z,22.60
2023-05-05T12:00:01.544Z,22.80
2023-05-05T12:02:31.455Z,22.90
2023-05-05T12:05:00.838Z,23.00
2023-05-05T12:07:30.847Z,23.10
2023-05-05T12:09:58.910Z,23.20
2023-05-05T12:12:36.497Z,23.30
2023-05-05T12:15:05.383Z,23.20
2023-05-05T12:17:44.854Z,23.10
2023-05-05T12:20:13.855Z,23.30
2023-05-05T12:22:42.286Z,23.10
2023-05-05T12:25:11.128Z,22.90
2023-05-05T12:27:39.188Z,22.70
2023-05-05T12:30:16.047Z,22.80
2023-05-05T12:32:46.218Z,22.90
2023-05-05T12:35:14.714Z,23.10
2023-05-05T12:37:43.963Z,23.10
2023-05-05T12:40:45.418Z,23.10
2023-05-05T12:43:26.388Z,22.90
2023-05-05T12:46:08.283Z,22.80
2023-05-05T12:48:39.001Z,22.50
2023-05-05T12:51:20.156Z,22.60
2023-05-05T12:53:48.828Z,22.80
2023-05-05T12:56:36.791Z,22.90
2023-05-05T12:59:06.524Z,23.00
2023-05-05T13:01:34.926Z,23.10
2023-05-05T13:04:09.560Z,23.40
2023-05-05T13:06:37.640Z,23.40
2023-05-05T13:09:05.816Z,22.90
2023-05-05T13:11:37.072Z,23.10
2023-05-05T13:14:05.438Z,23.30
2023-05-05T13:16:33.940Z,23.50
2023-05-05T13:19:01.686Z,23.30
2023-05-05T13:21:31.426Z,23.50
2023-05-05T13:24:18.348Z,23.60
2023-05-05T13:26:47.097Z,23.40
2023-05-05T13:29:16.290Z,23.00
2023-05-05T13:31:44.446Z,23.20
2023-05-05T13:34:12.458Z,22.90
2023-05-05T13:36:41.575Z,23.10
2023-05-05T13:39:09.739Z,23.10
2023-05-05T13:41:37.556Z,23.10
2023-05-05T13:44:05.371Z,22.90
2023-05-05T13:46:33.159Z,22.80
2023-05-05T13:49:00.937Z,23.00
2023-05-05T13:51:29.386Z,23.00
2023-05-05T13:53:58.477Z,22.90
2023-05-05T13:56:27.799Z,23.20
2023-05-05T13:58:55.705Z,23.20
2023-05-05T14:01:23.548Z,23.30
2023-05-05T14:03:51.392Z,23.50
2023-05-05T14:06:19.269Z,23.50
2023-05-05T14:08:47.103Z,23.30
2023-05-05T14:11:17.931Z,23.20
2023-05-05T14:13:46.587Z,23.30
2023-05-05T14:16:14.801Z,23.20
2023-05-05T14:18:42.676Z,23.20
2023-05-05T14:21:11.168Z,23.10
2023-05-05T14:23:38.925Z,23.30
2023-05-05T14:26:08.662Z,23.20
2023-05-05T14:28:37.785Z,23.10
2023-05-05T14:31:05.899Z,23.10
2023-05-05T14:33:33.674Z,23.10
2023-05-05T14:36:01.409Z,23.20
2023-05-05T14:38:29.208Z,23.20
2023-05-05T14:40:57.201Z,23.30
2023-05-05T14:43:25.008Z,23.10
2023-05-05T14:45:54.291Z,23.10
2023-05-05T14:48:22.574Z,23.10
2023-05-05T14:50:50.672Z,23.00
2023-05-05T14:53:18.855Z,23.00
2023-05-05T14:55:46.657Z,23.00
2023-05-05T14:58:14.467Z,22.90
2023-05-05T15:00:42.232Z,22.90
2023-05-05T15:03:11.476Z,22.90
2023-05-05T15:05:39.346Z,22.70
2023-05-05T15:08:07.581Z,22.80
2023-05-05T15:10:35.304Z,22.80
2023-05-05T15:13:03.174Z,22.90
2023-05-05T15:15:30.964Z,22.90
2023-05-05T15:17:58.772Z,22.90
2023-05-05T15:20:28.157Z,22.90
2023-05-05T15:22:56.151Z,22.90
2023-05-05T15:25:24.286Z,22.70
2023-05-05T15:27:52.219Z,22.70
2023-05-05T15:30:20.048Z,22.70
2023-05-05T15:35:15.553Z,22.60
2023-05-05T15:37:44.656Z,22.70
2023-05-05T15:40:13.074Z,22.70
2023-05-05T15:42:40.896Z,22.70
2023-05-05T15:45:11.979Z,22.80
2023-05-05T15:47:39.848Z,22.60
2023-05-05T15:50:08.888Z,22.70
2023-05-05T15:52:36.690Z,22.50
2023-05-05T15:55:06.608Z,22.60
2023-05-05T15:57:34.669Z,22.50
2023-05-05T16:00:02.701Z,22.60
2023-05-05T16:02:30.543Z,22.50
2023-05-05T16:04:58.363Z,22.50
2023-05-05T16:07:26.850Z,22.50
2023-05-05T16:09:54.893Z,22.20
2023-05-05T16:12:24.025Z,22.20
2023-05-05T16:14:51.864Z,22.20
2023-05-05T16:17:21.025Z,22.00
2023-05-05T16:19:50.070Z,22.00
2023-05-05T16:22:17.900Z,22.00
2023-05-05T16:24:45.701Z,22.10
2023-05-05T16:27:14.635Z,22.10
2023-05-05T16:29:43.683Z,22.30
2023-05-05T16:32:11.467Z,22.20
2023-05-05T16:34:39.239Z,22.10
2023-05-05T16:37:07.242Z,22.00
2023-05-05T16:39:39.911Z,21.90
2023-05-05T16:42:07.728Z,21.80
2023-05-05T16:44:35.533Z,21.60
2023-05-05T16:47:04.671Z,21.60
2023-05-05T16:49:32.448Z,21.40
2023-05-05T16:52:00.231Z,21.30
2023-05-05T16:54:27.978Z,21.20
2023-05-05T16:56:55.750Z,21.30
2023-05-05T16:59:23.592Z,21.30
2023-05-05T17:01:51.468Z,21.20
2023-05-05T17:04:20.626Z,21.10
2023-05-05T17:06:48.405Z,21.10
2023-05-05T17:09:16.495Z,21.00
2023-05-05T17:11:44.286Z,21.00
2023-05-05T17:14:12.054Z,20.90
2023-05-05T17:16:39.921Z,21.00
2023-05-05T17:19:07.747Z,21.00
2023-05-05T17:21:36.885Z,20.90
2023-05-05T17:24:04.979Z,20.90
2023-05-05T17:26:32.816Z,20.80
2023-05-05T17:29:00.587Z,20.90
2023-05-05T17:31:28.392Z,20.90
2023-05-05T17:33:56.266Z,20.80
2023-05-05T17:36:24.103Z,20.70
2023-05-05T17:38:53.245Z,20.60
2023-05-05T17:41:21.822Z,20.60
2023-05-05T17:43:49.530Z,20.50
2023-05-05T17:46:17.370Z,20.50
2023-05-05T17:48:45.242Z,20.50
2023-05-05T17:51:13.092Z,20.60
2023-05-05T17:53:40.860Z,20.60
2023-05-05T17:56:10.092Z,20.60
2023-05-05T17:58:38.367Z,20.70
2023-05-05T18:01:06.184Z,20.70
2023-05-05T18:03:34.141Z,20.50
2023-05-05T18:06:02.395Z,20.20
2023-05-05T18:08:30.208Z,20.00
2023-05-05T18:10:57.933Z,20.10
2023-05-05T18:13:27.048Z,20.00
2023-05-05T18:15:54.986Z,20.00
2023-05-05T18:18:23.203Z,20.00
2023-05-05T18:20:51.062Z,20.00
2023-05-05T18:23:18.829Z,19.80
2023-05-05T18:25:46.581Z,20.00
2023-05-05T18:28:14.487Z,20.20
2023-05-05T18:30:43.618Z,20.20
2023-05-05T18:33:11.411Z,20.10
2023-05-05T18:35:39.315Z,19.90
2023-05-05T18:38:07.127Z,20.00
2023-05-05T18:40:34.911Z,20.00
2023-05-05T18:43:02.701Z,20.00
2023-05-05T18:45:30.549Z,19.80
2023-05-05T18:47:59.812Z,20.00
2023-05-05T18:50:27.967Z,20.10
2023-05-05T18:52:55.854Z,20.20
2023-05-05T18:55:23.802Z,20.20
2023-05-05T18:57:51.564Z,20.00
2023-05-05T19:00:22.465Z,19.80
2023-05-05T19:02:50.229Z,18.70
2023-05-05T19:05:19.585Z,18.70
2023-05-05T19:07:47.539Z,19.00
2023-05-05T19:10:15.278Z,19.20
2023-05-05T19:12:43.100Z,19.20
2023-05-05T19:15:13.027Z,19.20
2023-05-05T19:17:41.042Z,18.90
2023-05-05T19:20:09.791Z,18.90
2023-05-05T19:22:39.110Z,18.70
2023-05-05T19:25:07.601Z,18.80
2023-05-05T19:27:36.839Z,18.70
2023-05-05T19:30:05.065Z,18.60
2023-05-05T19:32:32.895Z,18.60
2023-05-05T19:35:01.394Z,18.60
2023-05-05T19:37:29.151Z,18.50
2023-05-05T19:39:58.299Z,18.50
2023-05-05T19:42:26.200Z,18.40
2023-05-05T19:44:53.992Z,18.40
2023-05-05T19:47:21.756Z,18.30
2023-05-05T19:49:49.498Z,18.20
2023-05-05T19:52:17.287Z,18.20
2023-05-05T19:54:45.090Z,18.10
2023-05-05T19:57:14.797Z,18.00
2023-05-05T19:59:42.634Z,18.00
2023-05-05T20:02:11.537Z,18.00
2023-05-05T20:04:39.332Z,18.00
2023-05-05T20:07:07.035Z,17.80
2023-05-05T20:09:34.766Z,17.90
2023-05-05T20:12:02.791Z,17.90
2023-05-05T20:14:32.311Z,17.60
2023-05-05T20:17:00.089Z,17.60
2023-05-05T20:19:27.863Z,17.60
2023-05-05T20:21:56.938Z,17.50
2023-05-05T20:24:24.664Z,17.50
2023-05-05T20:26:52.406Z,17.50
2023-05-05T20:29:20.516Z,17.50
2023-05-05T20:31:49.757Z,17.50
2023-05-05T20:34:17.797Z,17.50
2023-05-05T20:36:45.986Z,17.40
2023-05-05T20:39:15.811Z,17.40
2023-05-05T20:41:43.665Z,17.30
2023-05-05T20:44:11.453Z,17.30
2023-05-05T20:46:39.388Z,17.30
2023-05-05T20:49:08.541Z,17.20
2023-05-05T20:51:36.560Z,17.20
2023-05-05T20:54:04.651Z,17.20
2023-05-05T20:56:32.484Z,17.10
2023-05-05T20:59:00.284Z,17.10
2023-05-05T21:01:28.387Z,17.00
2023-05-05T21:03:56.409Z,17.00
2023-05-05T21:06:25.659Z,17.00
2023-05-05T21:08:53.428Z,16.90
2023-05-05T21:11:21.340Z,17.00
2023-05-05T21:13:49.124Z,16.90
2023-05-05T21:16:16.981Z,16.80
2023-05-05T21:18:46.609Z,16.80
2023-05-05T21:21:14.408Z,16.80
2023-05-05T21:23:43.520Z,16.70
2023-05-05T21:26:11.286Z,16.70
2023-05-05T21:28:39.091Z,16.60
2023-05-05T21:31:21.172Z,16.60
2023-05-05T21:33:50.142Z,16.60
2023-05-05T21:36:19.186Z,16.50
2023-05-05T21:38:48.398Z,16.50
2023-05-05T21:41:16.594Z,16.50
2023-05-05T21:43:44.450Z,16.50
2023-05-05T21:46:12.282Z,16.50
2023-05-05T21:48:41.304Z,16.50
2023-05-05T21:51:09.241Z,16.40
2023-05-05T21:53:37.670Z,16.40
2023-05-05T21:56:07.725Z,16.40
2023-05-05T21:58:35.601Z,16.40
2023-05-05T22:01:03.490Z,16.40
2023-05-05T22:03:31.341Z,16.40
2023-05-05T22:05:59.135Z,16.30
2023-05-05T22:08:26.937Z,16.30
2023-05-05T22:10:54.783Z,16.30
2023-05-05T22:13:23.918Z,16.30
2023-05-05T22:15:51.811Z,16.30
2023-05-05T22:18:19.665Z,16.20
2023-05-05T22:20:47.621Z,16.20
2023-05-05T22:23:16.084Z,16.20
2023-05-05T22:25:44.551Z,16.10
2023-05-05T22:28:12.516Z,16.10
2023-05-05T22:30:41.790Z,16.10
2023-05-05T22:33:09.613Z,16.00
2023-05-05T22:35:38.031Z,16.00
2023-05-05T22:38:05.902Z,15.90
2023-05-05T22:40:33.814Z,15.90
2023-05-05T22:43:01.612Z,15.90
2023-05-05T22:45:29.610Z,15.80
2023-05-05T22:47:58.755Z,15.80
2023-05-05T22:50:26.705Z,15.80
2023-05-05T22:52:54.500Z,15.80
2023-05-05T22:55:24.248Z,15.70
2023-05-05T22:57:52.372Z,15.70
2023-05-05T23:02:55.746Z,15.60
2023-05-05T23:05:25.078Z,15.60
2023-05-05T23:07:52.876Z,15.50
2023-05-05T23:10:20.652Z,15.50
2023-05-05T23:12:48.480Z,15.50
2023-05-05T23:15:16.470Z,15.50
2023-05-05T23:17:44.239Z,15.50
2023-05-05T23:20:12.952Z,15.50
2023-05-05T23:22:42.115Z,15.50
2023-05-05T23:25:10.749Z,15.40
2023-05-05T23:27:40.956Z,15.40
2023-05-05T23:30:09.986Z,15.40
2023-05-05T23:32:37.840Z,15.40
2023-05-05T23:35:06.233Z,15.40
2023-05-05T23:37:33.949Z,15.30
2023-05-05T23:40:03.328Z,15.30
2023-05-05T23:42:31.168Z,15.30
2023-05-05T23:44:58.948Z,15.30
2023-05-05T23:47:26.748Z,15.30
2023-05-05T23:49:54.519Z,15.30
2023-05-05T23:52:22.440Z,15.30
2023-05-05T23:54:50.874Z,15.30
2023-05-05T23:57:22.578Z,15.30
2023-05-05T23:59:50.357Z,15.30
